Time;durP1;ratioP1;P1;durP2;ratioP2;P2;SDS_P1;SDS_P2;PMS_P1;PMS_P2;Temp;Humidity;BMP_temperature;BMP_pressure;BME280_temperature;BME280_humidity;BME280_pressure;Samples;Min_cycle;Max_cycle;Signal;HPM_P1;HPM_P2
2022/01/20 00:03:19;;;;;;;7.97;3.85;;;;;;;1.48;75.94;96021.53;5052026;28;20048;-80
2022/01/20 00:27:36;;;;;;;7.32;3.15;;;;;;;1.52;76.04;96012.34;5055729;28;20040;-79
2022/01/20 00:35:21;;;;;;;9.80;3.63;;;;;;;1.47;76.21;96014.72;5056548;28;20055;-80
2022/01/20 00:37:47;;;;;;;7.68;3.45;;;;;;;1.54;76.48;96022.53;5044853;28;20033;-80
2022/01/20 00:40:13;;;;;;;6.00;3.25;;;;;;;1.53;76.12;96013.91;5056812;28;20571;-80
2022/01/20 00:42:39;;;;;;;7.43;3.50;;;;;;;1.49;75.55;96017.91;5056975;28;20037;-80
2022/01/20 00:45:05;;;;;;;6.78;3.45;;;;;;;1.61;75.61;96014.72;5051128;28;20070;-80
2022/01/20 00:47:30;;;;;;;8.07;3.83;;;;;;;1.56;75.50;96018.72;5048825;28;20068;-80
2022/01/20 00:49:56;;;;;;;6.80;3.10;;;;;;;1.62;75.74;96011.13;5056080;28;20109;-79
2022/01/20 00:52:22;;;;;;;8.20;3.42;;;;;;;1.53;75.91;96019.09;5054775;28;20045;-80
2022/01/20 00:54:47;;;;;;;9.90;3.75;;;;;;;1.53;75.48;96018.31;5055005;28;20457;-80
2022/01/20 00:57:14;;;;;;;8.65;3.35;;;;;;;1.60;75.86;96023.53;5054728;28;20529;-80
2022/01/20 00:59:40;;;;;;;6.90;3.50;;;;;;;1.54;76.17;96020.72;5052403;28;20767;-79
2022/01/20 01:02:08;;;;;;;6.80;3.35;;;;;;;1.70;75.15;96013.53;5045454;28;20041;-80
2022/01/20 01:04:35;;;;;;;8.88;3.83;;;;;;;1.61;75.71;96019.91;5055192;28;20033;-79
2022/01/20 01:09:46;;;;;;;;;;;;;;;1.66;75.47;96012.34;5048759;28;20037;-78
2022/01/20 01:12:17;;;;;;;8.45;3.53;;;;;;;1.63;75.28;96028.31;5055517;28;19921;-78
2022/01/20 01:14:48;;;;;;;7.82;3.38;;;;;;;1.53;75.57;96019.09;5053621;28;20060;-80
2022/01/20 01:22:34;;;;;;;7.00;3.13;;;;;;;1.67;75.22;96019.13;5048329;28;20065;-78
2022/01/20 01:25:01;;;;;;;8.68;3.35;;;;;;;1.67;75.11;96029.50;5050866;28;20048;-78
2022/01/20 01:27:29;;;;;;;7.47;3.53;;;;;;;1.63;75.12;96023.13;5040419;28;20483;-79
2022/01/20 01:35:01;;;;;;;8.93;3.40;;;;;;;1.61;75.83;96019.91;5053522;28;20518;-78
2022/01/20 01:40:06;;;;;;;9.02;3.50;;;;;;;1.66;75.38;96017.53;5046736;28;20102;-79
2022/01/20 01:42:44;;;;;;;8.83;3.10;;;;;;;1.65;75.62;96010.72;5050834;28;20651;-79
2022/01/20 01:45:36;;;;;;;7.95;3.10;;;;;;;1.71;75.46;96004.72;5054864;28;20068;-79
2022/01/20 01:48:04;;;;;;;8.05;3.40;;;;;;;1.66;74.96;96001.97;5040319;28;20129;-79
2022/01/20 01:50:30;;;;;;;6.93;3.17;;;;;;;1.73;75.61;96005.34;5049166;28;20044;-79
2022/01/20 01:52:57;;;;;;;5.78;2.75;;;;;;;1.71;75.37;96004.72;5053375;28;20047;-79
2022/01/20 01:55:24;;;;;;;8.07;3.35;;;;;;;1.65;75.75;96000.34;5055593;28;20041;-79
2022/01/20 01:57:50;;;;;;;5.90;2.67;;;;;;;1.75;74.45;96002.53;5053343;28;20037;-81
2022/01/20 02:00:17;;;;;;;5.20;2.58;;;;;;;1.76;74.50;96002.34;5047111;28;20120;-80
2022/01/20 02:02:44;;;;;;;5.55;2.63;;;;;;;1.74;74.99;95996.56;5053425;28;20037;-79
2022/01/20 02:05:12;;;;;;;7.60;3.60;;;;;;;1.72;75.08;95993.38;5054531;28;20041;-79
2022/01/20 02:21:05;;;;;;;5.32;2.40;;;;;;;1.75;74.83;96000.75;5055733;28;20045;-80
2022/01/20 02:23:32;;;;;;;6.78;3.10;;;;;;;1.65;75.05;96000.34;5055863;28;20052;-80
2022/01/20 02:25:57;;;;;;;6.97;3.20;;;;;;;1.81;74.50;95994.75;5051917;28;20124;-80
2022/01/20 02:28:23;;;;;;;5.55;2.88;;;;;;;1.78;74.80;96005.56;5036386;28;20052;-79
2022/01/20 02:30:49;;;;;;;6.45;3.15;;;;;;;1.75;74.85;95995.56;5047999;28;20037;-79
2022/01/20 02:33:18;;;;;;;7.50;2.75;;;;;;;1.81;74.96;95999.13;5056440;28;20053;-79
2022/01/20 02:35:49;;;;;;;7.38;3.10;;;;;;;1.70;75.67;95983.19;5054243;28;20033;-80
2022/01/20 02:38:22;;;;;;;5.18;2.55;;;;;;;1.75;76.70;95982.56;5055098;28;20052;-80
2022/01/20 02:46:05;;;;;;;6.30;2.95;;;;;;;1.35;80.50;95980.00;5054401;28;20064;-80
2022/01/20 02:48:31;;;;;;;5.70;2.75;;;;;;;1.40;80.61;95967.25;5056253;28;20051;-80
2022/01/20 02:50:57;;;;;;;4.28;2.40;;;;;;;1.48;80.19;95969.66;5054806;28;20124;-79
2022/01/20 02:53:23;;;;;;;8.18;3.45;;;;;;;1.43;81.35;95971.25;5049634;28;20656;-80
2022/01/20 02:55:49;;;;;;;6.10;3.00;;;;;;;1.46;80.51;95971.63;5038794;28;20060;-79
2022/01/20 02:58:14;;;;;;;8.50;3.33;;;;;;;1.25;81.01;95970.03;5055325;28;20055;-80
2022/01/20 03:00:40;;;;;;;5.20;2.72;;;;;;;1.44;80.42;95976.22;5054904;28;20041;-80
2022/01/20 03:03:05;;;;;;;7.80;3.70;;;;;;;1.34;81.53;95973.22;5040629;28;20048;-80
2022/01/20 03:05:31;;;;;;;7.80;3.63;;;;;;;1.23;83.01;95968.63;5042160;28;20053;-79
2022/01/20 03:07:58;;;;;;;8.18;2.88;;;;;;;1.23;82.45;95966.84;5054355;28;20037;-79
2022/01/20 03:10:23;;;;;;;9.27;3.47;;;;;;;1.23;83.32;95945.31;5054235;28;20052;-79
2022/01/20 03:12:49;;;;;;;6.82;3.30;;;;;;;1.12;84.72;95960.47;5054249;28;20045;-80
2022/01/20 03:15:15;;;;;;;6.68;3.05;;;;;;;1.12;84.39;95950.09;5054822;28;20128;-79
2022/01/20 03:17:40;;;;;;;7.00;3.20;;;;;;;1.15;84.31;95948.88;5053461;28;20048;-80
2022/01/20 03:20:06;;;;;;;8.18;3.28;;;;;;;1.23;83.20;95942.72;5049731;28;20036;-80
2022/01/20 03:22:32;;;;;;;6.95;3.45;;;;;;;1.26;81.96;95944.91;5053728;28;20041;-80
2022/01/20 03:24:58;;;;;;;6.78;3.30;;;;;;;1.18;82.42;95949.28;5052037;28;20052;-79
2022/01/20 03:27:24;;;;;;;9.20;3.55;;;;;;;1.14;82.75;95932.53;5053822;28;20052;-80
2022/01/20 03:29:49;;;;;;;8.73;3.25;;;;;;;1.27;83.42;95951.69;5051258;28;20048;-79
2022/01/20 03:32:15;;;;;;;6.38;3.13;;;;;;;1.28;83.19;95959.28;5054295;28;20064;-79
2022/01/20 03:34:41;;;;;;;9.07;3.58;;;;;;;1.15;83.91;95934.13;5052176;28;20059;-80
2022/01/20 03:37:07;;;;;;;7.25;3.20;;;;;;;1.19;84.10;95937.94;5050865;28;20522;-80
2022/01/20 03:39:32;;;;;;;6.35;2.95;;;;;;;1.12;84.04;95947.50;5046287;28;20041;-79
2022/01/20 03:41:58;;;;;;;6.07;3.05;;;;;;;1.13;85.03;95950.88;5050354;28;20048;-79
2022/01/20 03:44:24;;;;;;;6.57;3.30;;;;;;;1.07;86.20;95962.03;5051668;28;20115;-79
2022/01/20 03:46:50;;;;;;;7.30;3.55;;;;;;;0.94;86.94;95968.00;5053248;28;20048;-80
2022/01/20 03:49:27;;;;;;;7.97;3.72;;;;;;;0.91;87.67;95976.19;5038605;28;20526;-80
2022/01/20 03:51:56;;;;;;;7.07;3.42;;;;;;;0.88;88.47;95964.41;5047259;28;20051;-80
2022/01/20 03:54:22;;;;;;;6.63;3.38;;;;;;;0.84;89.22;95968.38;5052744;28;20048;-80
2022/01/20 03:56:47;;;;;;;8.07;4.03;;;;;;;0.70;90.06;95972.72;5045290;28;20514;-80
2022/01/20 03:59:13;;;;;;;6.20;3.28;;;;;;;0.80;90.28;95962.78;5039175;28;20116;-80
2022/01/20 04:01:38;;;;;;;8.23;3.58;;;;;;;0.64;91.98;95963.16;5053003;28;20045;-80
2022/01/20 04:04:04;;;;;;;6.93;3.50;;;;;;;0.63;92.36;95977.91;5048376;28;20116;-80
2022/01/20 04:06:30;;;;;;;6.05;2.47;;;;;;;0.56;93.63;95965.91;5047737;28;20049;-79
2022/01/20 04:08:56;;;;;;;7.50;3.58;;;;;;;0.40;95.68;95983.38;5052513;28;20067;-80
2022/01/20 04:11:25;;;;;;;9.65;3.85;;;;;;;0.28;96.77;95984.94;5053554;28;20045;-80
2022/01/20 04:13:51;;;;;;;5.95;3.05;;;;;;;0.32;97.43;95986.16;5053838;28;20044;-78
2022/01/20 04:16:37;;;;;;;6.40;3.45;;;;;;;0.29;98.19;95983.97;5053942;28;20056;-80
2022/01/20 04:19:09;;;;;;;9.43;3.92;;;;;;;0.15;99.01;95996.81;5053435;28;20041;-79
2022/01/20 04:21:36;;;;;;;8.32;3.92;;;;;;;0.11;99.49;95995.59;5042739;28;20044;-80
2022/01/20 04:24:04;;;;;;;7.47;3.70;;;;;;;0.17;99.31;95989.66;5046516;28;20041;-79
2022/01/20 04:26:30;;;;;;;9.55;3.80;;;;;;;0.07;99.67;95989.22;5052612;28;20052;-79
2022/01/20 04:28:57;;;;;;;7.72;3.95;;;;;;;0.09;100.00;95986.44;5033054;28;20045;-79
2022/01/20 04:31:27;;;;;;;7.97;3.60;;;;;;;0.11;100.00;95987.84;5040498;28;20120;-79
2022/01/20 04:33:56;;;;;;;6.93;3.70;;;;;;;0.05;100.00;95975.66;5052953;28;20565;-79
2022/01/20 04:36:22;;;;;;;7.53;3.55;;;;;;;0.01;100.00;95971.84;5041205;28;20042;-79
2022/01/20 04:38:47;;;;;;;9.15;4.07;;;;;;;-0.07;100.00;95983.16;5033117;28;20600;-78
2022/01/20 04:41:13;;;;;;;7.10;3.40;;;;;;;-0.04;100.00;95976.81;5045721;28;20045;-79
2022/01/20 04:43:38;;;;;;;8.38;3.80;;;;;;;-0.08;100.00;95980.78;5050598;28;20056;-78
2022/01/20 04:59:19;;;;;;;8.77;3.67;;;;;;;-0.24;100.00;95984.47;5050891;28;20048;-77
2022/01/20 05:01:46;;;;;;;7.90;3.88;;;;;;;-0.21;100.00;95976.31;5051578;28;20041;-78
2022/01/20 05:04:12;;;;;;;10.50;5.13;;;;;;;-0.28;100.00;95978.84;5048169;28;20038;-78
2022/01/20 05:06:40;;;;;;;9.35;3.92;;;;;;;-0.21;100.00;95981.50;5050740;28;20044;-78
2022/01/20 05:09:06;;;;;;;11.68;4.32;;;;;;;-0.24;100.00;95982.66;5047031;28;20053;-78
2022/01/20 05:11:34;;;;;;;8.55;4.13;;;;;;;-0.23;100.00;95979.09;5042053;28;20059;-78
2022/01/20 05:13:59;;;;;;;9.57;4.40;;;;;;;-0.18;100.00;95989.66;5053335;28;20037;-78
2022/01/20 05:16:25;;;;;;;9.15;4.13;;;;;;;-0.26;100.00;95984.66;5045267;28;20404;-78
2022/01/20 05:18:50;;;;;;;7.63;3.33;;;;;;;-0.25;100.00;95981.06;5032759;28;20116;-78
2022/01/20 05:21:16;;;;;;;9.90;4.65;;;;;;;-0.25;100.00;95969.91;5038960;28;20049;-78
2022/01/20 05:23:41;;;;;;;9.40;4.75;;;;;;;-0.31;100.00;95976.66;5046475;28;20124;-78
2022/01/20 05:26:07;;;;;;;8.32;4.25;;;;;;;-0.20;100.00;95978.72;5049598;28;20621;-77
2022/01/20 05:28:32;;;;;;;12.43;5.07;;;;;;;-0.18;100.00;95976.72;5051939;28;20044;-78
2022/01/20 05:30:59;;;;;;;9.93;4.40;;;;;;;-0.19;100.00;95975.16;5044414;28;20045;-78
2022/01/20 05:33:25;;;;;;;9.55;4.43;;;;;;;-0.25;100.00;95970.72;5049495;28;20053;-77
2022/01/20 05:35:51;;;;;;;11.50;5.07;;;;;;;-0.18;100.00;95981.91;5051219;28;20037;-78
2022/01/20 05:38:17;;;;;;;10.73;5.00;;;;;;;-0.24;100.00;95977.50;5051827;28;20041;-79
2022/01/20 05:40:42;;;;;;;10.32;5.18;;;;;;;-0.21;100.00;95971.16;5044668;28;20044;-78
2022/01/20 05:43:08;;;;;;;12.88;5.40;;;;;;;-0.25;100.00;95965.53;5040687;28;20045;-79
2022/01/20 05:45:35;;;;;;;12.55;5.20;;;;;;;-0.22;100.00;95965.16;5047651;28;20538;-78
2022/01/20 05:48:10;;;;;;;8.85;4.28;;;;;;;-0.16;100.00;95967.97;5051833;28;20044;-79
2022/01/20 05:50:37;;;;;;;12.38;4.70;;;;;;;-0.14;100.00;95960.81;5047790;28;20079;-78
2022/01/20 05:53:04;;;;;;;16.70;6.03;;;;;;;-0.20;100.00;95962.41;5052666;28;20124;-79
2022/01/20 05:55:30;;;;;;;11.63;5.95;;;;;;;-0.24;100.00;95961.97;5053319;28;20116;-79
2022/01/20 05:57:55;;;;;;;9.38;4.68;;;;;;;-0.20;100.00;95960.59;5038929;28;20415;-79
2022/01/20 06:00:23;;;;;;;12.98;4.88;;;;;;;-0.18;100.00;95963.78;5047578;28;20071;-80
2022/01/20 06:05:33;;;;;;;10.77;5.30;;;;;;;-0.22;100.00;95975.50;5033492;28;20049;-78
2022/01/20 06:07:59;;;;;;;12.23;5.10;;;;;;;-0.15;100.00;95977.34;5047436;28;20688;-80
2022/01/20 06:10:25;;;;;;;11.18;5.20;;;;;;;-0.10;100.00;95972.38;5051736;28;20065;-79
2022/01/20 06:12:51;;;;;;;12.75;5.18;;;;;;;-0.08;100.00;95976.38;5052230;28;20073;-79
2022/01/20 06:15:16;;;;;;;10.73;5.28;;;;;;;-0.09;100.00;95984.34;5053569;28;20052;-79
2022/01/20 06:17:42;;;;;;;11.23;5.15;;;;;;;-0.06;100.00;95989.13;5049789;28;20043;-79
2022/01/20 06:20:10;;;;;;;10.95;5.05;;;;;;;-0.06;100.00;95973.59;5039768;28;20040;-79
2022/01/20 06:22:36;;;;;;;11.50;5.35;;;;;;;-0.14;100.00;95979.75;5049753;28;20041;-79
2022/01/20 06:25:03;;;;;;;10.82;5.18;;;;;;;-0.13;100.00;95980.53;5051932;28;20044;-79
2022/01/20 06:27:29;;;;;;;9.27;4.32;;;;;;;-0.06;100.00;95986.53;5051994;28;20045;-79
2022/01/20 06:29:55;;;;;;;12.10;5.40;;;;;;;-0.05;100.00;95980.38;5034652;28;20128;-80
2022/01/20 06:32:20;;;;;;;9.90;5.45;;;;;;;-0.04;100.00;95992.34;5051345;28;20111;-80
2022/01/20 06:34:46;;;;;;;11.55;5.18;;;;;;;-0.03;100.00;95986.16;5054488;28;20041;-80
2022/01/20 06:37:13;;;;;;;9.63;4.50;;;;;;;0.03;100.00;95977.66;5040792;28;20462;-80
2022/01/20 06:39:39;;;;;;;10.15;4.97;;;;;;;-0.05;100.00;95980.38;5053067;28;20679;-79
2022/01/20 06:42:05;;;;;;;9.23;4.90;;;;;;;0.00;100.00;95978.03;5053455;28;20045;-79
2022/01/20 06:44:31;;;;;;;9.90;4.93;;;;;;;-0.06;100.00;95978.78;5053135;28;20414;-79
2022/01/20 06:46:56;;;;;;;10.98;5.20;;;;;;;-0.04;100.00;95976.81;5051747;28;20040;-79
2022/01/20 06:49:22;;;;;;;11.27;4.68;;;;;;;0.04;100.00;95968.88;5046205;28;20036;-80
2022/01/20 06:51:47;;;;;;;13.98;4.95;;;;;;;0.05;100.00;95980.84;5053033;28;20037;-79
2022/01/20 06:54:13;;;;;;;13.82;5.72;;;;;;;0.05;100.00;95970.50;5053433;28;20064;-79
2022/01/20 06:56:43;;;;;;;13.65;6.05;;;;;;;-0.01;100.00;95968.66;5045705;28;20042;-77
2022/01/20 06:59:14;;;;;;;8.98;4.47;;;;;;;0.17;100.00;95981.91;5038142;28;20063;-77
2022/01/20 07:01:41;;;;;;;10.32;4.90;;;;;;;0.30;100.00;95967.41;5047009;28;20045;-77
2022/01/20 07:04:13;;;;;;;9.98;4.38;;;;;;;0.26;100.00;95973.97;5051125;28;20041;-77
2022/01/20 07:06:39;;;;;;;9.90;4.80;;;;;;;0.08;100.00;95970.09;5043712;28;20537;-80
2022/01/20 07:09:07;;;;;;;11.52;5.22;;;;;;;0.14;100.00;95976.31;5050906;28;20045;-79
2022/01/20 07:11:33;;;;;;;10.70;5.22;;;;;;;0.20;100.00;95985.09;5052153;28;20044;-79
2022/01/20 07:13:59;;;;;;;12.68;5.30;;;;;;;0.16;100.00;95988.06;5051765;28;20070;-79
2022/01/20 07:16:25;;;;;;;12.20;5.22;;;;;;;0.07;100.00;95978.88;5049497;28;20487;-78
2022/01/20 07:18:51;;;;;;;8.77;4.60;;;;;;;0.18;100.00;95987.88;5049758;28;20041;-75
2022/01/20 07:21:18;;;;;;;8.23;4.15;;;;;;;0.14;100.00;95990.06;5048762;28;20040;-76
2022/01/20 07:23:44;;;;;;;7.18;3.40;;;;;;;0.21;100.00;95984.09;5048000;28;20043;-77
2022/01/20 07:26:09;;;;;;;8.15;4.13;;;;;;;0.14;100.00;95974.53;5050256;28;20041;-79
2022/01/20 07:28:35;;;;;;;11.70;4.65;;;;;;;0.15;100.00;95976.09;5043372;28;20067;-77
2022/01/20 07:31:01;;;;;;;8.05;3.92;;;;;;;0.13;100.00;95983.28;5048949;28;20462;-79
2022/01/20 07:33:27;;;;;;;9.65;4.90;;;;;;;0.12;100.00;95980.88;5046928;28;20056;-77
2022/01/20 07:35:53;;;;;;;6.40;3.22;;;;;;;0.28;100.00;95987.53;5049483;28;20041;-79
2022/01/20 07:38:19;;;;;;;5.78;3.33;;;;;;;0.27;100.00;95991.09;5037264;28;20048;-80
2022/01/20 07:40:44;;;;;;;8.98;3.90;;;;;;;0.25;100.00;95995.69;5050045;28;20761;-78
2022/01/20 07:43:11;;;;;;;9.95;4.57;;;;;;;0.27;100.00;95993.69;5035063;28;20122;-79
2022/01/20 07:45:37;;;;;;;7.47;4.25;;;;;;;0.28;100.00;96000.47;5039846;28;20045;-78
2022/01/20 07:48:03;;;;;;;7.78;3.97;;;;;;;0.25;100.00;96000.84;5048639;28;20465;-78
2022/01/20 07:50:29;;;;;;;8.10;4.15;;;;;;;0.16;100.00;95995.84;5044061;28;20045;-77
2022/01/20 07:52:55;;;;;;;6.57;3.50;;;;;;;0.37;100.00;96009.66;5044916;28;20096;-78
2022/01/20 07:55:20;;;;;;;7.78;4.15;;;;;;;0.25;100.00;95996.47;5042563;28;20045;-78
2022/01/20 07:57:46;;;;;;;5.95;3.20;;;;;;;0.29;100.00;95994.31;5050804;28;20040;-78
2022/01/20 08:00:13;;;;;;;8.95;4.03;;;;;;;0.33;100.00;95995.50;5050366;28;20041;-78
2022/01/20 08:02:38;;;;;;;7.88;3.90;;;;;;;0.32;100.00;96001.69;5045448;28;20036;-78
2022/01/20 08:05:04;;;;;;;10.75;4.30;;;;;;;0.27;100.00;96014.41;5043388;28;20044;-78
2022/01/20 08:07:30;;;;;;;7.75;3.83;;;;;;;0.24;100.00;96009.59;5045129;28;20045;-78
2022/01/20 08:09:59;;;;;;;9.40;3.78;;;;;;;0.33;100.00;96019.63;5049327;28;20041;-79
2022/01/20 08:12:25;;;;;;;7.68;3.55;;;;;;;0.33;100.00;96013.63;5050361;28;20090;-78
2022/01/20 08:14:51;;;;;;;7.72;3.88;;;;;;;0.26;100.00;96018.78;5049359;28;20052;-78
2022/01/20 08:17:17;;;;;;;7.22;3.60;;;;;;;0.35;100.00;96029.78;5047766;28;20073;-77
2022/01/20 08:19:43;;;;;;;7.20;3.28;;;;;;;0.34;100.00;96030.75;5046477;28;20091;-77
2022/01/20 08:22:08;;;;;;;7.53;3.88;;;;;;;0.33;100.00;96040.34;5044274;28;20037;-78
2022/01/20 08:24:34;;;;;;;11.25;2.45;;;;;;;0.41;100.00;96016.06;5042657;28;20078;-78
2022/01/20 08:27:00;;;;;;;7.80;3.65;;;;;;;0.42;100.00;96028.03;5049648;28;20510;-80
2022/01/20 08:29:26;;;;;;;6.55;3.78;;;;;;;0.35;100.00;96027.19;5045755;28;20506;-79
2022/01/20 08:31:52;;;;;;;8.45;3.63;;;;;;;0.34;100.00;96030.75;5048926;28;20041;-79
2022/01/20 08:34:17;;;;;;;7.25;3.20;;;;;;;0.39;100.00;96028.41;5049650;28;20457;-78
2022/01/20 08:36:44;;;;;;;6.50;3.13;;;;;;;0.47;100.00;96046.34;5052462;28;20037;-79
2022/01/20 08:41:55;;;;;;;5.75;2.80;;;;;;;0.37;100.00;96035.56;5050910;28;20067;-79
2022/01/20 08:44:20;;;;;;;5.57;2.90;;;;;;;0.40;100.00;96044.72;5054855;28;20045;-79
2022/01/20 08:46:47;;;;;;;5.50;2.63;;;;;;;0.39;100.00;96049.13;5053591;28;20044;-79
2022/01/20 08:49:12;;;;;;;7.63;3.80;;;;;;;0.40;100.00;96053.28;5053913;28;20041;-79
2022/01/20 08:51:39;;;;;;;6.95;3.53;;;;;;;0.35;100.00;96053.09;5039021;28;20253;-79
2022/01/20 08:54:05;;;;;;;7.05;3.17;;;;;;;0.47;100.00;96056.72;5037317;28;20051;-80
2022/01/20 08:56:34;;;;;;;6.40;3.30;;;;;;;0.36;100.00;96059.88;5038753;28;20041;-79
2022/01/20 08:59:00;;;;;;;7.53;4.20;;;;;;;0.42;100.00;96073.84;5040524;28;20060;-79
2022/01/20 09:01:25;;;;;;;6.88;3.55;;;;;;;0.41;100.00;96065.25;5040741;28;20037;-79
2022/01/20 09:03:51;;;;;;;7.47;3.88;;;;;;;0.36;100.00;96075.41;5052357;28;20060;-79
2022/01/20 09:06:16;;;;;;;8.02;3.80;;;;;;;0.38;100.00;96076.00;5053707;28;20414;-79
2022/01/20 09:08:42;;;;;;;6.57;3.47;;;;;;;0.38;100.00;96070.81;5054901;28;20076;-78
2022/01/20 09:11:18;;;;;;;7.68;3.85;;;;;;;0.33;100.00;96060.22;5056332;28;20068;-79
2022/01/20 09:16:28;;;;;;;6.35;3.45;;;;;;;0.45;100.00;96058.72;5045364;28;20041;-79
2022/01/20 09:18:54;;;;;;;6.53;3.55;;;;;;;0.46;100.00;96055.13;5053037;28;20540;-79
2022/01/20 09:21:22;;;;;;;6.85;3.53;;;;;;;0.49;100.00;96044.38;5053487;28;20055;-79
2022/01/20 09:23:48;;;;;;;4.57;2.70;;;;;;;0.60;100.00;96050.00;5054359;28;20415;-79
2022/01/20 09:26:14;;;;;;;7.40;3.85;;;;;;;0.57;100.00;96071.13;5044465;28;20042;-79
2022/01/20 09:28:39;;;;;;;7.25;3.85;;;;;;;0.56;100.00;96064.34;5044689;28;20126;-80
2022/01/20 09:31:06;;;;;;;6.82;3.55;;;;;;;0.57;100.00;96076.28;5053713;28;20079;-81
2022/01/20 09:33:32;;;;;;;6.43;3.17;;;;;;;0.59;100.00;96076.88;5055282;28;20045;-79
2022/01/20 09:35:59;;;;;;;9.73;4.45;;;;;;;0.54;100.00;96089.63;5049380;28;20056;-79
2022/01/20 09:38:25;;;;;;;8.15;4.05;;;;;;;0.57;100.00;96084.06;5039659;28;20041;-78
2022/01/20 09:40:52;;;;;;;9.77;4.75;;;;;;;0.57;100.00;96097.00;5054968;28;20041;-79
2022/01/20 09:43:18;;;;;;;7.50;3.70;;;;;;;0.59;100.00;96095.03;5048734;28;20033;-77
2022/01/20 09:45:49;;;;;;;6.80;3.67;;;;;;;0.56;100.00;96105.78;5043173;28;20033;-77
2022/01/20 09:48:15;;;;;;;8.40;4.43;;;;;;;0.55;100.00;96109.34;5046750;28;20059;-77
2022/01/20 09:50:41;;;;;;;9.02;4.70;;;;;;;0.62;100.00;96110.22;5051227;28;20045;-77
2022/01/20 09:53:06;;;;;;;10.35;4.60;;;;;;;0.66;100.00;96101.03;5051112;28;20052;-77
2022/01/20 09:55:32;;;;;;;17.35;4.35;;;;;;;0.73;100.00;96081.13;5031136;28;20088;-77
2022/01/20 09:57:58;;;;;;;7.93;4.32;;;;;;;0.68;100.00;96094.69;5044986;28;20045;-77
2022/01/20 10:00:24;;;;;;;10.07;4.38;;;;;;;0.74;100.00;96102.69;5036259;28;20045;-78
2022/01/20 10:02:58;;;;;;;7.30;4.15;;;;;;;0.95;100.00;96093.97;5032077;28;20056;-79
2022/01/20 10:05:28;;;;;;;9.95;4.50;;;;;;;0.99;100.00;96090.00;5044943;28;20045;-79
2022/01/20 10:08:00;;;;;;;8.68;3.97;;;;;;;0.97;100.00;96099.78;5051157;28;20045;-78
2022/01/20 10:10:43;;;;;;;10.10;4.20;;;;;;;1.03;100.00;96092.03;5046656;28;20045;-78
2022/01/20 10:13:10;;;;;;;7.13;4.13;;;;;;;1.12;99.00;96090.06;5051357;28;20045;-79
2022/01/20 10:15:36;;;;;;;9.25;3.63;;;;;;;1.04;99.33;96098.03;5051610;28;20040;-78
2022/01/20 10:18:10;;;;;;;8.73;4.43;;;;;;;1.04;100.00;96098.03;5044226;28;20116;-79
2022/01/20 10:20:48;;;;;;;9.05;4.55;;;;;;;0.99;99.77;96090.00;5045908;28;20045;-80
2022/01/20 10:23:14;;;;;;;7.68;3.70;;;;;;;1.04;100.00;96087.66;5049854;28;20041;-80
2022/01/20 10:25:40;;;;;;;6.82;3.22;;;;;;;1.11;98.79;96092.88;5042729;28;20088;-78
2022/01/20 10:28:08;;;;;;;6.47;4.00;;;;;;;1.13;100.00;96091.66;5055974;28;20037;-78
2022/01/20 10:30:33;;;;;;;7.32;3.88;;;;;;;1.19;100.00;96090.91;5055949;28;20037;-80
2022/01/20 10:33:00;;;;;;;9.63;4.35;;;;;;;1.05;98.78;96089.25;5051976;28;20045;-78
2022/01/20 10:35:33;;;;;;;7.80;3.65;;;;;;;1.11;100.00;96083.28;5050908;28;20041;-78
2022/01/20 10:38:15;;;;;;;7.45;4.22;;;;;;;1.12;99.70;96084.91;5047760;28;20063;-78
2022/01/20 10:40:50;;;;;;;8.77;4.13;;;;;;;1.18;99.66;96088.50;5045741;28;21818;-78
2022/01/20 10:43:24;;;;;;;8.68;4.35;;;;;;;1.14;100.00;96098.44;5061719;28;20049;-78
2022/01/20 10:46:01;;;;;;;8.23;4.25;;;;;;;1.21;100.00;96094.06;5051309;28;20362;-78
2022/01/20 10:48:27;;;;;;;8.05;4.32;;;;;;;1.36;98.43;96090.53;5051320;28;20071;-79
2022/01/20 10:50:53;;;;;;;8.27;3.97;;;;;;;1.54;97.62;96082.19;5047979;28;20057;-78
2022/01/20 10:53:22;;;;;;;6.80;3.80;;;;;;;1.92;95.27;96089.38;5053258;28;20052;-79
2022/01/20 10:55:48;;;;;;;8.82;4.25;;;;;;;3.54;89.35;96070.44;5051531;28;20091;-78
2022/01/20 10:58:20;;;;;;;7.43;3.90;;;;;;;2.60;90.37;96076.09;5045879;28;20044;-78
2022/01/20 11:00:51;;;;;;;7.10;4.07;;;;;;;2.59;90.73;96061.50;5045453;28;20045;-82
2022/01/20 11:03:18;;;;;;;8.70;3.55;;;;;;;2.44;90.57;96055.75;5052145;28;20098;-78
2022/01/20 11:05:48;;;;;;;7.15;3.70;;;;;;;2.38;90.77;96066.97;5050445;28;20066;-81
2022/01/20 11:08:16;;;;;;;6.18;3.50;;;;;;;2.87;89.23;96062.97;5046823;28;20457;-82
2022/01/20 11:10:44;;;;;;;6.35;3.80;;;;;;;2.78;89.02;96065.03;5053550;28;20047;-78
2022/01/20 11:13:11;;;;;;;7.43;3.40;;;;;;;5.11;80.44;96057.28;5052381;28;20052;-85
2022/01/20 11:15:37;;;;;;;8.25;4.03;;;;;;;5.47;78.16;96045.16;5043635;28;20048;-83
2022/01/20 11:18:03;;;;;;;7.60;3.58;;;;;;;5.01;77.50;96052.59;5053224;28;20068;-85
2022/01/20 11:20:32;;;;;;;7.78;3.30;;;;;;;3.95;81.55;96063.13;5053380;28;20522;-80
2022/01/20 11:23:04;;;;;;;8.93;3.90;;;;;;;3.32;85.07;96072.59;5052340;28;20538;-85
2022/01/20 11:25:35;;;;;;;6.38;3.33;;;;;;;3.47;84.51;96051.47;5041041;28;20045;-83
2022/01/20 11:28:24;;;;;;;7.18;3.90;;;;;;;3.41;85.88;96054.94;5049934;28;20036;-80
2022/01/20 11:31:05;;;;;;;6.28;3.60;;;;;;;5.67;75.11;96035.19;5047165;28;20053;-80
2022/01/20 11:33:36;;;;;;;5.60;3.03;;;;;;;4.42;79.02;96044.47;5044635;28;20048;-76
2022/01/20 11:36:04;;;;;;;5.72;3.10;;;;;;;4.12;78.83;96039.94;5038607;28;20041;-78
2022/01/20 11:38:48;;;;;;;7.88;3.17;;;;;;;4.83;76.96;96029.97;5045277;28;20047;-76
2022/01/20 11:41:16;;;;;;;6.13;2.92;;;;;;;4.47;77.35;96018.56;5053836;28;20094;-77
2022/01/20 11:43:50;;;;;;;7.00;3.53;;;;;;;3.94;82.22;96012.84;5061023;28;20040;-77
2022/01/20 11:46:22;;;;;;;6.60;3.10;;;;;;;3.58;79.81;96019.56;5050813;28;20045;-78
2022/01/20 11:48:55;;;;;;;5.43;2.83;;;;;;;4.26;79.15;96025.75;5033902;28;20670;-77
2022/01/20 11:51:23;;;;;;;7.38;3.20;;;;;;;4.95;73.33;96017.75;5041807;28;20048;-78
2022/01/20 11:54:00;;;;;;;8.23;3.00;;;;;;;3.48;77.60;96008.84;5050177;28;20126;-78
2022/01/20 11:56:33;;;;;;;6.93;2.97;;;;;;;3.72;80.63;96020.28;5047740;28;20048;-79
2022/01/20 11:58:58;;;;;;;10.02;3.05;;;;;;;3.49;79.11;96007.81;5049836;28;20036;-80
2022/01/20 12:01:27;;;;;;;7.22;2.90;;;;;;;3.75;78.66;95995.59;5050816;28;20037;-80
2022/01/20 12:03:54;;;;;;;4.43;2.28;;;;;;;3.15;79.21;95999.47;5041223;28;20135;-78
2022/01/20 12:06:24;;;;;;;6.47;2.70;;;;;;;3.10;79.99;96002.69;5043615;28;20045;-77
2022/01/20 12:08:56;;;;;;;6.90;3.00;;;;;;;3.25;79.28;96004.19;5047165;28;20583;-79
2022/01/20 12:11:38;;;;;;;5.20;2.50;;;;;;;3.32;79.96;96001.53;5054273;28;20037;-78
2022/01/20 12:14:06;;;;;;;6.35;2.95;;;;;;;3.07;79.63;96007.50;5055168;28;20040;-79
2022/01/20 12:16:33;;;;;;;4.57;2.33;;;;;;;3.20;81.29;96023.00;5055740;28;20048;-78
2022/01/20 12:19:00;;;;;;;7.65;2.65;;;;;;;3.10;80.38;96002.69;5051238;28;20454;-79
2022/01/20 12:21:30;;;;;;;6.75;2.55;;;;;;;5.22;72.75;95991.31;5055156;28;20056;-78
2022/01/20 12:23:57;;;;;;;4.20;2.45;;;;;;;4.04;76.55;96006.34;5044146;28;20041;-79
2022/01/20 12:26:23;;;;;;;5.95;2.47;;;;;;;3.47;76.95;95994.22;5050995;28;20040;-77
2022/01/20 12:29:06;;;;;;;12.13;2.47;;;;;;;3.38;77.61;95992.91;5055313;28;20041;-78
2022/01/20 12:31:43;;;;;;;7.50;2.65;;;;;;;3.40;77.05;95983.06;5050818;28;20037;-76
2022/01/20 12:34:11;;;;;;;7.47;2.33;;;;;;;2.91;78.29;95983.59;5044580;28;20692;-77
2022/01/20 12:36:39;;;;;;;5.85;2.42;;;;;;;2.91;78.32;95973.19;5033970;28;20415;-79
2022/01/20 12:39:05;;;;;;;5.47;2.63;;;;;;;2.82;79.21;95958.84;5051936;28;20049;-81
2022/01/20 12:41:31;;;;;;;10.65;2.47;;;;;;;2.95;77.86;95948.34;5050791;28;20130;-79
2022/01/20 12:44:05;;;;;;;6.40;2.55;;;;;;;3.01;79.53;95969.34;5055011;28;20033;-79
2022/01/20 12:46:39;;;;;;;7.13;2.63;;;;;;;3.07;78.15;95965.91;5050626;28;20046;-79
2022/01/20 12:49:16;;;;;;;4.85;2.10;;;;;;;3.09;77.48;95958.69;5052828;28;20051;-79
2022/01/20 12:51:45;;;;;;;7.07;2.40;;;;;;;3.07;77.35;95950.28;5046458;28;20518;-79
2022/01/20 12:54:16;;;;;;;10.60;2.50;;;;;;;3.04;80.01;95950.72;5044600;28;20128;-79
2022/01/20 12:56:45;;;;;;;8.85;2.88;;;;;;;2.99;78.04;95947.94;5053305;28;20037;-79
2022/01/20 12:59:16;;;;;;;8.43;2.53;;;;;;;2.95;77.77;95953.56;5056682;28;20048;-78
2022/01/20 13:01:45;;;;;;;5.95;2.22;;;;;;;2.76;79.91;95957.09;5052718;28;20060;-75